Time;durP1;ratioP1;P1;durP2;ratioP2;P2;SDS_P1;SDS_P2;PMS_P1;PMS_P2;Temp;Humidity;BMP_temperature;BMP_pressure;BME280_temperature;BME280_humidity;BME280_pressure;Samples;Min_cycle;Max_cycle;Signal;HPM_P1;HPM_P2
2022/04/22 00:02:05;;;;;;;0.80;0.80;;;11.50;77.70;;;;;;5012676;28;20841;-70
2022/04/22 00:04:31;;;;;;;0.50;0.50;;;11.50;78.70;;;;;;5028472;28;20432;-68
2022/04/22 00:06:57;;;;;;;0.80;0.70;;;11.50;77.40;;;;;;4993995;28;20489;-68
2022/04/22 00:09:22;;;;;;;1.10;0.80;;;11.40;77.60;;;;;;4993327;28;20393;-69
2022/04/22 00:11:48;;;;;;;0.70;0.50;;;11.50;77.50;;;;;;4998416;28;20373;-68
2022/04/22 00:14:13;;;;;;;0.40;0.20;;;11.50;77.50;;;;;;5012330;28;20857;-69
2022/04/22 00:16:39;;;;;;;0.40;0.20;;;11.50;78.60;;;;;;5013237;28;20738;-68
2022/04/22 00:19:05;;;;;;;0.40;0.20;;;11.50;77.80;;;;;;5012778;28;20412;-68
2022/04/22 00:21:31;;;;;;;0.40;0.20;;;11.60;77.30;;;;;;5012009;28;20471;-68
2022/04/22 00:23:56;;;;;;;0.40;0.30;;;11.50;76.40;;;;;;5012086;28;20420;-68
2022/04/22 00:26:22;;;;;;;0.40;0.20;;;11.50;77.10;;;;;;5012320;28;20384;-69
2022/04/22 00:28:48;;;;;;;0.40;0.40;;;11.60;76.40;;;;;;5012952;28;20460;-69
2022/04/22 00:31:14;;;;;;;0.70;0.70;;;11.60;77.40;;;;;;5016915;28;20557;-69
2022/04/22 00:33:41;;;;;;;0.40;0.20;;;11.60;76.50;;;;;;5031949;28;20419;-69
2022/04/22 00:36:07;;;;;;;0.40;0.20;;;11.60;76.60;;;;;;5032563;28;20403;-69
2022/04/22 00:38:34;;;;;;;0.40;0.20;;;11.60;77.30;;;;;;5002786;28;20739;-69
2022/04/22 00:40:59;;;;;;;0.40;0.40;;;11.60;76.40;;;;;;5012654;28;20385;-69
2022/04/22 00:43:26;;;;;;;0.40;0.35;;;11.70;76.50;;;;;;5012742;28;20768;-68
2022/04/22 00:45:54;;;;;;;0.40;0.20;;;11.60;77.00;;;;;;5006107;28;20521;-68
2022/04/22 00:48:21;;;;;;;0.60;0.60;;;11.50;77.10;;;;;;4993171;28;20402;-69
2022/04/22 00:50:48;;;;;;;0.40;0.20;;;11.50;76.70;;;;;;4992102;28;20481;-69
2022/04/22 00:53:14;;;;;;;0.40;0.40;;;11.50;76.00;;;;;;4992969;28;20446;-68
2022/04/22 00:55:43;;;;;;;0.90;0.90;;;11.60;76.30;;;;;;4992494;28;20418;-70
2022/04/22 00:58:09;;;;;;;0.40;0.20;;;11.50;79.10;;;;;;4992596;28;20429;-69
2022/04/22 01:00:36;;;;;;;0.40;0.30;;;11.50;78.20;;;;;;4992575;28;20929;-68
2022/04/22 01:03:03;;;;;;;0.43;0.40;;;11.50;78.60;;;;;;4992149;28;20511;-68
2022/04/22 01:10:59;;;;;;;0.40;0.20;;;11.20;82.10;;;;;;4994472;28;20438;-68
2022/04/22 01:13:24;;;;;;;0.40;0.38;;;11.00;83.00;;;;;;5011901;28;20432;-68
2022/04/22 01:15:50;;;;;;;0.60;0.40;;;10.90;84.00;;;;;;5012291;28;20404;-70
2022/04/22 01:18:17;;;;;;;0.40;0.20;;;10.80;83.60;;;;;;5026491;28;20400;-68
2022/04/22 01:20:43;;;;;;;0.90;0.73;;;10.70;85.30;;;;;;5010873;28;20431;-68
2022/04/22 01:23:09;;;;;;;0.40;0.20;;;10.70;85.60;;;;;;5011120;28;20897;-68
2022/04/22 01:25:34;;;;;;;0.40;0.30;;;10.60;87.00;;;;;;5011711;28;20789;-68
2022/04/22 01:28:01;;;;;;;0.40;0.30;;;10.70;86.20;;;;;;4991929;28;20394;-70
2022/04/22 01:30:27;;;;;;;0.40;0.20;;;10.70;86.00;;;;;;4992196;28;20787;-68
2022/04/22 01:32:58;;;;;;;0.40;0.30;;;10.70;87.20;;;;;;5027152;28;20517;-68
2022/04/22 01:35:24;;;;;;;0.40;0.20;;;10.60;88.80;;;;;;5030069;28;20443;-68
2022/04/22 01:37:51;;;;;;;0.40;0.20;;;10.60;89.30;;;;;;5030746;28;20925;-68
2022/04/22 01:40:17;;;;;;;0.40;0.20;;;10.50;87.50;;;;;;5030774;28;20438;-69
2022/04/22 01:42:43;;;;;;;0.40;0.20;;;10.40;89.50;;;;;;5030886;28;20418;-69
2022/04/22 01:45:12;;;;;;;0.50;0.50;;;10.40;90.70;;;;;;5031076;28;20387;-70
2022/04/22 01:47:37;;;;;;;0.40;0.30;;;10.50;90.90;;;;;;5031165;28;20383;-69
2022/04/22 01:50:04;;;;;;;0.40;0.20;;;10.40;89.90;;;;;;5030830;28;20391;-69
2022/04/22 01:52:29;;;;;;;0.40;0.20;;;10.40;90.00;;;;;;5016869;28;20416;-68
2022/04/22 01:54:56;;;;;;;0.40;0.20;;;10.20;90.50;;;;;;5011118;28;20789;-69
2022/04/22 01:57:22;;;;;;;0.40;0.20;;;10.40;90.60;;;;;;5010617;28;20396;-69
2022/04/22 01:59:49;;;;;;;0.40;0.20;;;10.30;90.60;;;;;;5011307;28;20389;-69
2022/04/22 02:02:18;;;;;;;0.50;0.40;;;10.20;90.90;;;;;;5010742;28;20475;-68
2022/04/22 02:04:45;;;;;;;0.40;0.20;;;10.10;91.80;;;;;;5010567;28;20951;-68
2022/04/22 02:07:11;;;;;;;0.40;0.30;;;9.90;92.40;;;;;;5026456;28;20405;-68
2022/04/22 02:09:37;;;;;;;0.70;0.70;;;10.00;92.20;;;;;;5010024;28;20393;-69
2022/04/22 02:12:04;;;;;;;0.40;0.20;;;10.00;92.60;;;;;;5011344;28;20425;-69
2022/04/22 02:14:30;;;;;;;0.40;0.20;;;10.00;92.10;;;;;;5009161;28;20404;-70
2022/04/22 02:16:56;;;;;;;0.40;0.28;;;9.90;93.80;;;;;;5010511;28;20846;-68
2022/04/22 02:19:21;;;;;;;0.40;0.40;;;9.80;94.90;;;;;;5010985;28;20385;-69
2022/04/22 02:21:47;;;;;;;0.40;0.20;;;9.80;96.10;;;;;;5010326;28;20408;-69
2022/04/22 02:24:13;;;;;;;0.40;0.20;;;9.80;94.50;;;;;;5010993;28;20428;-68
2022/04/22 02:29:23;;;;;;;0.40;0.20;;;9.80;94.60;;;;;;5003865;28;20428;-68
2022/04/22 02:31:52;;;;;;;0.57;0.57;;;9.60;95.10;;;;;;5018955;28;20379;-69
2022/04/22 02:34:22;;;;;;;0.40;0.20;;;9.70;94.90;;;;;;5030656;28;20453;-68
2022/04/22 02:36:49;;;;;;;0.60;0.60;;;9.70;95.40;;;;;;5029418;28;20775;-69
2022/04/22 02:39:15;;;;;;;0.40;0.20;;;9.80;95.40;;;;;;5029975;28;20403;-68
2022/04/22 02:47:09;;;;;;;0.60;0.60;;;9.60;95.50;;;;;;5010538;28;20948;-68
2022/04/22 02:49:35;;;;;;;0.60;0.60;;;9.70;96.30;;;;;;5014673;28;20389;-68
2022/04/22 02:52:01;;;;;;;0.40;0.30;;;9.70;95.60;;;;;;5014137;28;20373;-69
2022/04/22 02:54:30;;;;;;;0.40;0.30;;;9.60;96.20;;;;;;5014757;28;20396;-68
2022/04/22 02:56:56;;;;;;;0.40;0.20;;;9.60;95.90;;;;;;5014375;28;20388;-70
2022/04/22 02:59:23;;;;;;;0.40;0.20;;;9.50;97.60;;;;;;5014328;28;20397;-68
2022/04/22 03:01:49;;;;;;;0.40;0.20;;;9.40;97.60;;;;;;5014338;28;20392;-68
2022/04/22 03:04:15;;;;;;;0.40;0.40;;;9.40;97.50;;;;;;5003093;28;20490;-69
2022/04/22 03:06:41;;;;;;;0.40;0.30;;;9.30;97.80;;;;;;4994635;28;20770;-68
2022/04/22 03:09:07;;;;;;;0.40;0.20;;;9.40;98.10;;;;;;4994061;28;20504;-70
2022/04/22 03:11:34;;;;;;;0.40;0.20;;;9.30;98.30;;;;;;4994769;28;20755;-68
2022/04/22 03:14:00;;;;;;;0.40;0.20;;;9.30;98.80;;;;;;4994586;28;20396;-69
2022/04/22 03:16:27;;;;;;;0.40;0.20;;;9.30;98.50;;;;;;4993735;28;20389;-68
2022/04/22 03:18:53;;;;;;;0.40;0.20;;;9.20;98.70;;;;;;4994702;28;20448;-69
2022/04/22 03:21:19;;;;;;;0.40;0.35;;;9.20;99.40;;;;;;4993921;28;20782;-69
2022/04/22 03:23:45;;;;;;;0.40;0.22;;;9.10;99.40;;;;;;4994575;28;20450;-68
2022/04/22 03:26:11;;;;;;;0.40;0.30;;;9.00;99.80;;;;;;4994668;28;20806;-67
2022/04/22 03:28:38;;;;;;;0.40;0.20;;;9.00;99.90;;;;;;4999708;28;20480;-67
2022/04/22 03:31:04;;;;;;;0.40;0.20;;;9.00;99.90;;;;;;5016829;28;20399;-67
2022/04/22 03:33:29;;;;;;;0.70;0.70;;;9.00;99.90;;;;;;5033259;28;20485;-67
2022/04/22 03:35:55;;;;;;;0.40;0.20;;;9.00;99.90;;;;;;5032871;28;20826;-67
2022/04/22 03:38:22;;;;;;;0.40;0.30;;;8.90;99.90;;;;;;5033571;28;20501;-67
2022/04/22 03:40:48;;;;;;;0.40;0.30;;;8.80;99.90;;;;;;5033077;28;20382;-67
2022/04/22 03:43:15;;;;;;;0.40;0.30;;;8.90;99.90;;;;;;5033995;28;20566;-67
2022/04/22 03:45:41;;;;;;;0.40;0.20;;;8.80;99.90;;;;;;5033088;28;20371;-68
2022/04/22 03:48:10;;;;;;;0.40;0.30;;;8.80;99.90;;;;;;5033803;28;20393;-68
2022/04/22 03:50:36;;;;;;;0.40;0.30;;;8.70;99.90;;;;;;5033116;28;20395;-68
2022/04/22 03:53:06;;;;;;;0.40;0.20;;;8.80;99.90;;;;;;5033978;28;20474;-67
2022/04/22 03:55:32;;;;;;;0.40;0.20;;;8.70;99.90;;;;;;5032359;28;20392;-68
2022/04/22 03:58:10;;;;;;;0.40;0.30;;;8.70;99.90;;;;;;5033349;28;20464;-68
2022/04/22 04:00:44;;;;;;;0.40;0.30;;;8.80;99.90;;;;;;5032498;28;20493;-69
2022/04/22 04:03:12;;;;;;;0.40;0.23;;;8.60;99.90;;;;;;5033186;28;20898;-68
2022/04/22 04:05:39;;;;;;;0.40;0.20;;;8.70;99.90;;;;;;5032899;28;20379;-68
2022/04/22 04:08:11;;;;;;;0.40;0.40;;;8.70;99.90;;;;;;5032549;28;20399;-68
2022/04/22 04:16:05;;;;;;;0.40;0.20;;;8.70;99.90;;;;;;5019108;28;20443;-68
2022/04/22 04:18:37;;;;;;;0.40;0.30;;;8.70;99.90;;;;;;5013359;28;20781;-69
2022/04/22 04:23:50;;;;;;;1.10;1.00;;;8.60;99.90;;;;;;5013247;28;20423;-69
2022/04/22 04:26:16;;;;;;;2.60;1.00;;;8.50;99.90;;;;;;5012609;28;20417;-69
2022/04/22 04:28:44;;;;;;;0.40;0.20;;;8.40;99.90;;;;;;5013085;28;20393;-69
2022/04/22 04:31:11;;;;;;;0.60;0.60;;;8.40;99.90;;;;;;5010859;28;20471;-69
2022/04/22 04:33:38;;;;;;;0.40;0.30;;;8.40;99.90;;;;;;5033365;28;20456;-69
2022/04/22 04:36:04;;;;;;;0.40;0.20;;;8.30;99.90;;;;;;5031826;28;20413;-69
2022/04/22 04:38:31;;;;;;;0.40;0.20;;;8.30;99.90;;;;;;5032805;28;20403;-69
2022/04/22 04:40:57;;;;;;;0.40;0.20;;;8.20;99.90;;;;;;5030514;28;20736;-69
2022/04/22 04:43:23;;;;;;;0.67;0.67;;;8.20;99.90;;;;;;5010314;28;20458;-69
2022/04/22 04:45:50;;;;;;;0.90;0.50;;;8.10;99.90;;;;;;5003711;28;20402;-69
2022/04/22 04:48:16;;;;;;;0.40;0.20;;;8.10;99.90;;;;;;5019035;28;20446;-69
2022/04/22 04:50:43;;;;;;;0.40;0.30;;;8.10;99.90;;;;;;5019473;28;20486;-69
2022/04/22 04:53:11;;;;;;;0.60;0.60;;;8.10;99.90;;;;;;5021629;28;20395;-70
2022/04/22 04:55:36;;;;;;;0.40;0.30;;;8.30;99.90;;;;;;5023289;28;20383;-68
2022/04/22 04:58:03;;;;;;;0.40;0.40;;;8.10;99.90;;;;;;5016566;28;20899;-69
2022/04/22 05:00:29;;;;;;;0.40;0.30;;;8.00;99.90;;;;;;5021786;28;20426;-69
2022/04/22 05:02:57;;;;;;;0.40;0.20;;;8.20;99.90;;;;;;5021356;28;20769;-69
2022/04/22 05:05:23;;;;;;;0.50;0.50;;;8.30;99.90;;;;;;5019223;28;20741;-69
2022/04/22 05:07:57;;;;;;;0.40;0.30;;;8.50;99.90;;;;;;5028102;28;20406;-69
2022/04/22 05:10:27;;;;;;;0.40;0.20;;;8.50;99.90;;;;;;5009925;28;20405;-69
2022/04/22 05:12:53;;;;;;;0.47;0.43;;;8.60;99.90;;;;;;5004227;28;20490;-69
2022/04/22 05:15:20;;;;;;;0.80;0.50;;;8.70;99.90;;;;;;5005230;28;20438;-69
2022/04/22 05:17:47;;;;;;;0.40;0.20;;;8.70;99.90;;;;;;5004916;28;20468;-68
2022/04/22 05:20:14;;;;;;;0.40;0.30;;;8.60;99.90;;;;;;5012049;28;20385;-69
2022/04/22 05:22:41;;;;;;;0.40;0.20;;;8.70;99.90;;;;;;4995180;28;20845;-69
2022/04/22 05:25:08;;;;;;;0.40;0.30;;;8.50;99.90;;;;;;5005898;28;20790;-69
2022/04/22 05:27:35;;;;;;;0.40;0.30;;;8.40;99.90;;;;;;5008824;28;20407;-69
2022/04/22 05:32:47;;;;;;;0.50;0.50;;;8.40;99.90;;;;;;5010655;28;20412;-69
2022/04/22 05:35:15;;;;;;;1.10;1.10;;;8.50;99.90;;;;;;5019953;28;20753;-69
2022/04/22 05:37:45;;;;;;;0.50;0.50;;;8.40;99.90;;;;;;5010595;28;20426;-69
2022/04/22 05:40:12;;;;;;;0.40;0.30;;;8.40;99.90;;;;;;5010827;28;20404;-69
2022/04/22 05:42:38;;;;;;;0.40;0.20;;;8.40;99.90;;;;;;5008304;28;20793;-71
2022/04/22 05:45:08;;;;;;;0.40;0.20;;;8.40;99.90;;;;;;5010006;28;20404;-69
2022/04/22 05:47:34;;;;;;;0.80;0.80;;;8.30;99.90;;;;;;5008313;28;20825;-69
2022/04/22 05:50:00;;;;;;;0.40;0.20;;;8.40;99.90;;;;;;5010442;28;20388;-69
2022/04/22 05:52:26;;;;;;;0.40;0.20;;;8.30;99.90;;;;;;5011074;28;20413;-69
2022/04/22 05:54:53;;;;;;;0.40;0.20;;;8.30;99.90;;;;;;5010301;28;20420;-69
2022/04/22 05:57:19;;;;;;;0.40;0.20;;;8.30;99.90;;;;;;5010718;28;20407;-69
2022/04/22 05:59:45;;;;;;;0.57;0.32;;;8.40;99.90;;;;;;5010891;28;20480;-70
2022/04/22 06:02:11;;;;;;;0.40;0.20;;;8.40;99.90;;;;;;5010864;28;20852;-69
2022/04/22 06:04:36;;;;;;;0.40;0.20;;;8.50;99.90;;;;;;5010601;28;20425;-69
2022/04/22 06:07:02;;;;;;;0.40;0.40;;;8.40;99.90;;;;;;5009849;28;20504;-69
2022/04/22 06:12:14;;;;;;;0.40;0.20;;;8.40;99.90;;;;;;5001144;28;20392;-69
2022/04/22 06:14:40;;;;;;;0.60;0.60;;;8.50;99.90;;;;;;5010450;28;20389;-69
2022/04/22 06:17:06;;;;;;;0.40;0.20;;;8.40;99.90;;;;;;5008540;28;20442;-69
2022/04/22 06:19:32;;;;;;;0.40;0.25;;;8.50;99.90;;;;;;5009013;28;20404;-69
2022/04/22 06:21:58;;;;;;;0.40;0.30;;;8.50;99.90;;;;;;5010039;28;20385;-72
2022/04/22 06:24:23;;;;;;;0.70;0.70;;;8.50;99.90;;;;;;5010005;28;20463;-69
2022/04/22 06:26:50;;;;;;;0.80;0.80;;;8.60;99.90;;;;;;5010605;28;20737;-69
2022/04/22 06:29:15;;;;;;;0.40;0.20;;;8.50;99.90;;;;;;5002593;28;20412;-69
2022/04/22 06:31:41;;;;;;;1.10;0.90;;;8.60;99.90;;;;;;5008310;28;20418;-69
2022/04/22 06:34:07;;;;;;;0.40;0.40;;;8.50;99.90;;;;;;4995536;28;20411;-72
2022/04/22 06:36:33;;;;;;;1.20;1.20;;;8.60;99.90;;;;;;5010121;28;20397;-69
2022/04/22 06:39:01;;;;;;;0.40;0.30;;;8.60;99.90;;;;;;5006090;28;20422;-70
2022/04/22 06:46:54;;;;;;;0.40;0.38;;;8.80;99.90;;;;;;5004331;28;20415;-67
2022/04/22 06:49:19;;;;;;;0.40;0.30;;;8.90;99.90;;;;;;5009716;28;20947;-68
2022/04/22 06:51:45;;;;;;;0.70;0.70;;;8.90;99.90;;;;;;5022210;28;20431;-68
2022/04/22 06:54:11;;;;;;;0.40;0.20;;;9.00;99.90;;;;;;5010293;28;20387;-68
2022/04/22 06:56:40;;;;;;;0.40;0.20;;;8.90;99.90;;;;;;5015658;28;20391;-69
2022/04/22 06:59:06;;;;;;;0.40;0.30;;;9.00;99.90;;;;;;5013019;28;20393;-67
2022/04/22 07:01:32;;;;;;;0.73;0.63;;;9.20;99.90;;;;;;5017409;28;20390;-68
2022/04/22 07:03:58;;;;;;;0.40;0.20;;;9.30;99.90;;;;;;5005708;28;20432;-68
2022/04/22 07:06:25;;;;;;;0.40;0.30;;;9.20;99.90;;;;;;5012523;28;20414;-69
2022/04/22 07:08:52;;;;;;;0.40;0.30;;;9.20;99.90;;;;;;5018359;28;20393;-67
2022/04/22 07:11:28;;;;;;;0.40;0.20;;;9.20;99.90;;;;;;5016902;28;20480;-68
2022/04/22 07:13:56;;;;;;;0.40;0.30;;;9.20;99.90;;;;;;5018232;28;20745;-68
2022/04/22 07:16:23;;;;;;;0.40;0.20;;;9.30;99.90;;;;;;4995362;28;20402;-68
2022/04/22 07:18:51;;;;;;;0.80;0.80;;;9.40;99.90;;;;;;5007069;28;20481;-68
2022/04/22 07:21:17;;;;;;;1.90;0.77;;;9.40;99.90;;;;;;5010367;28;20700;-69
2022/04/22 07:23:44;;;;;;;0.40;0.20;;;9.50;99.90;;;;;;5009325;28;20487;-68
2022/04/22 07:26:10;;;;;;;0.70;0.70;;;9.40;99.90;;;;;;5025187;28;20395;-69
2022/04/22 07:28:38;;;;;;;0.40;0.30;;;9.50;99.90;;;;;;4992988;28;20389;-70
2022/04/22 07:31:04;;;;;;;0.98;0.98;;;9.50;99.90;;;;;;5010766;28;20470;-69
2022/04/22 07:33:31;;;;;;;1.00;0.70;;;9.60;99.90;;;;;;5021261;28;20377;-67
2022/04/22 07:35:57;;;;;;;0.70;0.70;;;9.80;99.90;;;;;;5000648;28;20397;-68
2022/04/22 07:38:24;;;;;;;0.50;0.50;;;9.90;99.90;;;;;;5009680;28;20755;-68
2022/04/22 07:40:51;;;;;;;0.40;0.30;;;10.00;99.90;;;;;;5011735;28;20421;-68
2022/04/22 07:48:47;;;;;;;0.50;0.50;;;9.90;99.90;;;;;;5013086;28;20439;-68
2022/04/22 07:51:15;;;;;;;0.40;0.20;;;10.10;99.90;;;;;;5012786;28;20858;-68
2022/04/22 07:53:40;;;;;;;1.10;0.50;;;10.20;99.90;;;;;;5013987;28;20399;-68
2022/04/22 07:56:06;;;;;;;0.40;0.20;;;10.20;99.90;;;;;;5015179;28;21043;-68
2022/04/22 07:58:32;;;;;;;0.40;0.40;;;10.40;99.90;;;;;;5022091;28;20452;-68
2022/04/22 08:00:59;;;;;;;0.40;0.20;;;10.50;99.90;;;;;;5023367;28;20391;-69
2022/04/22 08:03:26;;;;;;;0.40;0.30;;;10.50;99.90;;;;;;5020914;28;20417;-68
2022/04/22 08:05:51;;;;;;;0.70;0.50;;;10.50;99.90;;;;;;5022388;28;20391;-69
2022/04/22 08:08:17;;;;;;;0.40;0.20;;;10.60;99.90;;;;;;5021062;28;20473;-68
2022/04/22 08:10:45;;;;;;;0.40;0.30;;;10.70;99.90;;;;;;5023112;28;20844;-67
2022/04/22 08:13:11;;;;;;;0.60;0.60;;;10.50;99.90;;;;;;5020559;28;20522;-68
2022/04/22 08:15:37;;;;;;;0.40;0.30;;;10.70;99.90;;;;;;5022053;28;20391;-69
2022/04/22 08:18:04;;;;;;;3.20;0.80;;;10.70;99.90;;;;;;5022825;28;20471;-69
2022/04/22 08:20:33;;;;;;;0.40;0.30;;;10.90;99.90;;;;;;5020195;28;20446;-69
2022/04/22 08:23:00;;;;;;;0.40;0.20;;;10.80;99.90;;;;;;5018474;28;20456;-69
2022/04/22 08:25:26;;;;;;;0.40;0.30;;;11.00;99.90;;;;;;5020372;28;20394;-69
2022/04/22 08:27:53;;;;;;;0.40;0.30;;;11.20;99.90;;;;;;5021640;28;20383;-69
2022/04/22 08:30:19;;;;;;;0.40;0.30;;;11.30;99.90;;;;;;5020511;28;20381;-69
2022/04/22 08:32:45;;;;;;;0.40;0.28;;;11.30;99.90;;;;;;5025886;28;20803;-69
2022/04/22 08:35:11;;;;;;;0.60;0.60;;;11.20;99.90;;;;;;5026121;28;20383;-69
2022/04/22 08:37:38;;;;;;;0.73;0.73;;;11.40;99.90;;;;;;5023336;28;20395;-68
2022/04/22 08:40:06;;;;;;;1.00;1.00;;;11.50;99.90;;;;;;5009028;28;20419;-68
2022/04/22 08:42:35;;;;;;;0.50;0.50;;;11.50;99.90;;;;;;5009185;28;20455;-68
2022/04/22 08:45:01;;;;;;;0.40;0.40;;;11.60;99.90;;;;;;5023586;28;20387;-69
2022/04/22 08:50:16;;;;;;;0.50;0.50;;;11.60;99.90;;;;;;5008978;28;20864;-68
2022/04/22 08:52:46;;;;;;;0.40;0.30;;;11.90;99.90;;;;;;5004857;28;20477;-68
2022/04/22 08:55:13;;;;;;;0.40;0.30;;;11.90;99.90;;;;;;5003812;28;20471;-68
2022/04/22 08:57:41;;;;;;;0.50;0.50;;;11.80;99.90;;;;;;5011745;28;20391;-69
2022/04/22 09:00:07;;;;;;;0.40;0.40;;;11.90;99.90;;;;;;5012433;28;20842;-68
2022/04/22 09:02:34;;;;;;;0.40;0.40;;;12.10;99.90;;;;;;5011774;28;20401;-68
2022/04/22 09:04:59;;;;;;;1.20;1.20;;;12.20;99.90;;;;;;5006685;28;20738;-68
2022/04/22 09:07:30;;;;;;;1.10;1.10;;;12.60;99.10;;;;;;5018184;28;20409;-70
2022/04/22 09:09:56;;;;;;;0.93;0.93;;;12.50;98.30;;;;;;5035900;28;20412;-68
2022/04/22 09:12:24;;;;;;;0.40;0.40;;;12.60;97.60;;;;;;5022477;28;20378;-68
2022/04/22 09:14:54;;;;;;;0.70;0.70;;;12.70;97.00;;;;;;5021715;28;20478;-69
2022/04/22 09:17:24;;;;;;;0.40;0.20;;;12.70;97.20;;;;;;5017658;28;20384;-69
2022/04/22 09:19:53;;;;;;;0.40;0.30;;;12.70;97.50;;;;;;5021062;28;20436;-69
2022/04/22 09:22:22;;;;;;;0.40;0.30;;;12.70;99.00;;;;;;5015390;28;20834;-70
2022/04/22 09:24:50;;;;;;;0.40;0.30;;;12.90;97.70;;;;;;5018322;28;20501;-69
2022/04/22 09:27:16;;;;;;;0.43;0.35;;;12.90;96.90;;;;;;4994971;28;20420;-69
2022/04/22 09:29:56;;;;;;;1.00;0.70;;;13.00;97.20;;;;;;5011288;28;20439;-69
2022/04/22 09:32:27;;;;;;;0.80;0.80;;;13.10;96.60;;;;;;5006564;28;20392;-68
2022/04/22 09:34:56;;;;;;;0.60;0.60;;;13.20;97.50;;;;;;5011449;28;20477;-69
2022/04/22 09:42:54;;;;;;;0.40;0.20;;;13.60;95.00;;;;;;5010735;28;20439;-69
2022/04/22 09:45:20;;;;;;;0.60;0.60;;;13.90;94.80;;;;;;4992295;28;20449;-68
2022/04/22 09:47:59;;;;;;;0.40;0.20;;;13.70;94.80;;;;;;5007821;28;20455;-69
2022/04/22 09:50:44;;;;;;;0.40;0.30;;;13.60;94.70;;;;;;5001972;28;20391;-67
2022/04/22 09:53:11;;;;;;;0.40;0.20;;;14.00;93.70;;;;;;4991771;28;20434;-71
2022/04/22 09:55:53;;;;;;;0.60;0.60;;;14.10;93.10;;;;;;4992273;28;20473;-71
2022/04/22 09:58:24;;;;;;;0.40;0.30;;;14.10;92.60;;;;;;5006526;28;20456;-69
2022/04/22 10:00:57;;;;;;;1.00;0.80;;;14.30;92.90;;;;;;4991680;28;20469;-71
2022/04/22 10:03:26;;;;;;;0.40;0.30;;;14.20;92.30;;;;;;5001445;28;20798;-70
2022/04/22 10:05:53;;;;;;;0.40;0.40;;;14.20;92.80;;;;;;5010311;28;20388;-70
2022/04/22 10:08:20;;;;;;;0.40;0.40;;;14.40;91.60;;;;;;5011135;28;20396;-69
2022/04/22 10:10:47;;;;;;;0.40;0.20;;;14.60;91.30;;;;;;5011527;28;20393;-69
2022/04/22 10:13:16;;;;;;;1.10;1.10;;;14.50;90.40;;;;;;5010047;28;20887;-69
2022/04/22 10:15:44;;;;;;;0.40;0.20;;;14.60;90.90;;;;;;5010232;28;20385;-68
2022/04/22 10:18:13;;;;;;;0.40;0.40;;;14.50;91.20;;;;;;5010711;28;20395;-69
2022/04/22 10:20:40;;;;;;;0.40;0.40;;;14.50;91.10;;;;;;5011324;28;20913;-70
2022/04/22 10:23:06;;;;;;;0.40;0.20;;;14.50;91.40;;;;;;4990920;28;20422;-71
2022/04/22 10:25:33;;;;;;;0.40;0.30;;;14.30;91.20;;;;;;4991670;28;20389;-69
2022/04/22 10:28:07;;;;;;;0.40;0.40;;;14.60;90.90;;;;;;5002108;28;20392;-69
2022/04/22 10:30:34;;;;;;;0.40;0.30;;;14.60;91.20;;;;;;5008477;28;20388;-71
2022/04/22 10:33:00;;;;;;;0.40;0.30;;;14.80;91.10;;;;;;4999829;28;20405;-70
2022/04/22 10:35:26;;;;;;;0.80;0.80;;;14.70;90.50;;;;;;5002746;28;20388;-72
2022/04/22 10:37:53;;;;;;;0.40;0.20;;;14.90;90.50;;;;;;5019451;28;20401;-69
2022/04/22 10:40:24;;;;;;;1.10;0.80;;;15.10;91.00;;;;;;4991002;28;20425;-69
2022/04/22 10:42:52;;;;;;;0.40;0.30;;;15.30;91.00;;;;;;4991495;28;20398;-68
2022/04/22 10:48:28;;;;;;;0.40;0.20;;;15.40;90.50;;;;;;4992123;28;20464;-69
2022/04/22 10:50:58;;;;;;;0.40;0.30;;;15.60;89.50;;;;;;5010935;28;20393;-69
2022/04/22 10:53:29;;;;;;;1.10;1.00;;;15.80;89.60;;;;;;5010309;28;20483;-69
2022/04/22 10:56:27;;;;;;;2.00;1.20;;;15.90;89.80;;;;;;5011020;28;20395;-69
2022/04/22 10:59:20;;;;;;;0.50;0.50;;;15.90;88.90;;;;;;5010971;28;20414;-68
2022/04/22 11:01:47;;;;;;;1.25;0.95;;;15.80;89.10;;;;;;5010950;28;20389;-68
2022/04/22 11:04:20;;;;;;;0.73;0.73;;;15.90;87.80;;;;;;5010816;28;20416;-68
2022/04/22 11:06:47;;;;;;;0.40;0.30;;;16.00;88.10;;;;;;5009303;28;20432;-71
2022/04/22 11:09:27;;;;;;;0.40;0.20;;;15.90;87.00;;;;;;5013383;28;20459;-68
2022/04/22 11:11:55;;;;;;;0.40;0.40;;;16.20;87.00;;;;;;5014953;28;20381;-67
2022/04/22 11:14:23;;;;;;;0.50;0.40;;;16.20;88.20;;;;;;5014602;28;20389;-69
2022/04/22 11:16:50;;;;;;;1.13;0.95;;;16.50;85.00;;;;;;5014315;28;20434;-69
2022/04/22 11:19:19;;;;;;;0.80;0.70;;;16.60;86.70;;;;;;5019598;28;20902;-71
2022/04/22 11:21:46;;;;;;;0.90;0.90;;;16.90;83.70;;;;;;5029130;28;20874;-69
2022/04/22 11:24:17;;;;;;;1.70;0.60;;;17.10;85.50;;;;;;5012057;28;20409;-70
2022/04/22 11:26:44;;;;;;;0.40;0.30;;;17.20;84.00;;;;;;4994093;28;20382;-70
2022/04/22 11:29:10;;;;;;;0.40;0.30;;;17.50;81.10;;;;;;4995104;28;20734;-70
2022/04/22 11:31:36;;;;;;;1.10;1.00;;;17.60;81.20;;;;;;4994310;28;20394;-73
2022/04/22 11:34:17;;;;;;;0.50;0.50;;;17.90;79.30;;;;;;5002919;28;20400;-72
2022/04/22 11:36:47;;;;;;;0.50;0.40;;;18.20;78.10;;;;;;4994475;28;20898;-70
2022/04/22 11:39:22;;;;;;;0.60;0.60;;;19.00;76.80;;;;;;4993494;28;20424;-72
2022/04/22 11:41:57;;;;;;;0.60;0.50;;;19.40;74.30;;;;;;5000543;28;20737;-69
2022/04/22 11:44:30;;;;;;;0.40;0.20;;;19.90;72.20;;;;;;5014945;28;20415;-70
2022/04/22 11:47:01;;;;;;;0.40;0.30;;;19.00;72.70;;;;;;5013449;28;20472;-72
2022/04/22 11:49:32;;;;;;;1.20;1.10;;;19.60;70.40;;;;;;5011160;28;21417;-71
2022/04/22 11:51:59;;;;;;;0.90;0.70;;;19.10;71.20;;;;;;5010472;28;20557;-69
2022/04/22 11:54:26;;;;;;;0.50;0.40;;;19.30;72.60;;;;;;5008491;28;20404;-69
2022/04/22 11:56:53;;;;;;;0.52;0.50;;;19.90;70.70;;;;;;5011469;28;20393;-70
2022/04/22 11:59:22;;;;;;;0.40;0.30;;;20.00;69.80;;;;;;5010309;28;20711;-70
2022/04/22 12:05:32;;;;;;;0.40;0.30;;;19.00;70.10;;;;;;5013591;28;20765;-70
2022/04/22 12:10:11;;;;;;;1.10;0.68;;;20.20;67.90;;;;;;5012989;28;20376;-71
2022/04/22 12:12:48;;;;;;;0.40;0.20;;;20.00;68.00;;;;;;5013456;28;20435;-72
2022/04/22 12:15:18;;;;;;;0.70;0.70;;;19.40;68.70;;;;;;4999812;28;20510;-71
2022/04/22 12:17:45;;;;;;;1.30;1.20;;;19.30;71.30;;;;;;5013570;28;20436;-71
2022/04/22 12:20:11;;;;;;;0.50;0.40;;;19.60;68.70;;;;;;5011681;28;21226;-70
2022/04/22 12:22:37;;;;;;;0.40;0.30;;;19.60;69.20;;;;;;5013162;28;20399;-72
2022/04/22 12:25:28;;;;;;;0.40;0.30;;;19.60;69.40;;;;;;5012517;28;20397;-71
2022/04/22 12:28:11;;;;;;;0.60;0.60;;;20.20;71.00;;;;;;5013037;28;20436;-71
2022/04/22 12:30:38;;;;;;;0.40;0.30;;;20.40;68.10;;;;;;5013204;28;20381;-70
2022/04/22 12:33:05;;;;;;;0.50;0.47;;;21.00;66.50;;;;;;5011192;28;20425;-71
2022/04/22 12:35:31;;;;;;;0.40;0.30;;;21.10;65.80;;;;;;5010622;28;20801;-71
2022/04/22 12:37:57;;;;;;;0.70;0.70;;;20.40;65.60;;;;;;5011348;28;20419;-71
2022/04/22 12:40:26;;;;;;;0.40;0.40;;;20.60;65.90;;;;;;5009579;28;20405;-70
2022/04/22 12:42:53;;;;;;;0.50;0.50;;;21.40;66.40;;;;;;4997819;28;20416;-71
2022/04/22 12:54:04;;;;;;;1.00;0.50;;;20.30;68.40;;;;;;5017848;28;20512;-71
2022/04/22 12:56:31;;;;;;;0.40;0.20;;;20.40;65.30;;;;;;5014403;28;20397;-72
2022/04/22 12:59:03;;;;;;;1.20;0.60;;;20.80;66.10;;;;;;5014866;28;20931;-71
2022/04/22 13:01:32;;;;;;;0.40;0.20;;;20.30;69.50;;;;;;5009613;28;20403;-71
2022/04/22 13:03:58;;;;;;;0.40;0.30;;;20.60;66.20;;;;;;5017253;28;20805;-71
2022/04/22 13:06:49;;;;;;;0.60;0.60;;;20.30;66.30;;;;;;5011824;28;20409;-71
2022/04/22 13:09:16;;;;;;;0.60;0.60;;;19.80;68.90;;;;;;5019135;28;20895;-71
2022/04/22 13:11:43;;;;;;;0.50;0.50;;;20.50;67.20;;;;;;5012994;28;20475;-70
2022/04/22 13:14:09;;;;;;;0.40;0.30;;;20.20;67.60;;;;;;5007656;28;21077;-71
2022/04/22 13:16:34;;;;;;;0.40;0.40;;;20.40;66.50;;;;;;5010752;28;20400;-70
2022/04/22 13:19:01;;;;;;;0.43;0.43;;;20.20;67.00;;;;;;5011428;28;20435;-70
2022/04/22 13:21:27;;;;;;;3.28;1.58;;;20.70;66.00;;;;;;4999881;28;20400;-70
2022/04/22 13:23:53;;;;;;;0.50;0.40;;;20.30;67.40;;;;;;5008994;28;20428;-70
2022/04/22 13:26:20;;;;;;;0.50;0.50;;;20.50;68.10;;;;;;5011337;28;20450;-70
2022/04/22 13:28:46;;;;;;;0.70;0.70;;;20.20;68.60;;;;;;5013316;28;20881;-69
2022/04/22 13:31:12;;;;;;;0.40;0.30;;;19.60;66.80;;;;;;5016022;28;20397;-69
2022/04/22 13:33:38;;;;;;;1.10;1.00;;;20.60;68.00;;;;;;5025799;28;20885;-70
2022/04/22 13:36:04;;;;;;;0.60;0.50;;;19.80;66.70;;;;;;4992349;28;20401;-71
2022/04/22 13:38:32;;;;;;;0.40;0.20;;;20.20;65.70;;;;;;4998582;28;20904;-71
2022/04/22 13:40:58;;;;;;;0.70;0.70;;;20.80;65.60;;;;;;5020414;28;21185;-70
2022/04/22 13:43:30;;;;;;;0.40;0.20;;;20.30;65.50;;;;;;5011685;28;20428;-69
2022/04/22 13:54:13;;;;;;;0.50;0.40;;;19.90;66.40;;;;;;5011797;28;20380;-70
2022/04/22 13:56:38;;;;;;;0.40;0.30;;;20.70;67.50;;;;;;5011612;28;20388;-69
2022/04/22 13:59:05;;;;;;;0.60;0.60;;;20.50;66.20;;;;;;5010480;28;21206;-70
2022/04/22 14:01:31;;;;;;;2.30;0.50;;;20.30;67.20;;;;;;5000955;28;20425;-69
2022/04/22 14:03:56;;;;;;;0.70;0.70;;;20.70;67.20;;;;;;4992361;28;20411;-70
2022/04/22 14:06:23;;;;;;;0.40;0.40;;;20.20;65.90;;;;;;5018172;28;20399;-70